Time;durP1;ratioP1;P1;durP2;ratioP2;P2;SDS_P1;SDS_P2;PMS_P1;PMS_P2;Temp;Humidity;BMP_temperature;BMP_pressure;BME280_temperature;BME280_humidity;BME280_pressure;Samples;Min_cycle;Max_cycle;Signal;HPM_P1;HPM_P2
2023/12/05 00:01:01;;;;;;;15.95;6.40;;;;;;;;;;6419282;22;20006;-76
2023/12/05 00:03:26;;;;;;;13.80;5.80;;;;;;;;;;6392147;22;20031;-76
2023/12/05 00:05:51;;;;;;;12.65;5.30;;;;;;;;;;6392971;22;20025;-76
2023/12/05 00:08:17;;;;;;;14.18;4.50;;;;;;;;;;6393491;22;20017;-76
2023/12/05 00:10:43;;;;;;;12.98;5.10;;;;;;;;;;6422240;22;20038;-76
2023/12/05 00:13:08;;;;;;;13.73;5.63;;;;;;;;;;6392310;22;20010;-76
2023/12/05 00:15:34;;;;;;;16.63;5.07;;;;;;;;;;6392028;22;20496;-76
2023/12/05 00:17:59;;;;;;;14.38;5.72;;;;;;;;;;6422537;22;20002;-76
2023/12/05 00:20:25;;;;;;;10.77;4.90;;;;;;;;;;6392285;22;20464;-76
2023/12/05 00:22:51;;;;;;;10.15;4.38;;;;;;;;;;6392772;22;20021;-76
2023/12/05 00:25:16;;;;;;;8.88;4.05;;;;;;;;;;6421365;22;20009;-77
2023/12/05 00:27:41;;;;;;;8.43;4.25;;;;;;;;;;6394499;22;20019;-76
2023/12/05 00:30:07;;;;;;;10.48;4.57;;;;;;;;;;6399926;22;20017;-76
2023/12/05 00:32:32;;;;;;;12.68;5.78;;;;;;;;;;6435335;22;20018;-76
2023/12/05 00:34:58;;;;;;;19.63;6.82;;;;;;;;;;6402343;22;20085;-76
2023/12/05 00:37:23;;;;;;;19.00;6.72;;;;;;;;;;6393354;22;20005;-76
2023/12/05 00:39:48;;;;;;;11.35;5.18;;;;;;;;;;6392397;22;20024;-76
2023/12/05 00:42:14;;;;;;;12.60;5.38;;;;;;;;;;6393660;22;20040;-76
2023/12/05 00:44:39;;;;;;;17.02;5.95;;;;;;;;;;6392130;22;20017;-76
2023/12/05 00:47:05;;;;;;;18.90;6.30;;;;;;;;;;6392181;22;20086;-76
2023/12/05 00:49:34;;;;;;;13.50;5.80;;;;;;;;;;6391982;22;20058;-76
2023/12/05 00:51:59;;;;;;;14.93;6.20;;;;;;;;;;6392298;22;20024;-76
2023/12/05 00:54:25;;;;;;;16.92;6.15;;;;;;;;;;6420001;22;20800;-76
2023/12/05 00:56:50;;;;;;;15.57;6.82;;;;;;;;;;6423665;22;20516;-76
2023/12/05 00:59:15;;;;;;;17.15;6.45;;;;;;;;;;6423030;22;20009;-76
2023/12/05 01:01:41;;;;;;;16.48;5.90;;;;;;;;;;6394938;22;20041;-76
2023/12/05 01:04:06;;;;;;;11.95;5.80;;;;;;;;;;6422395;22;20045;-77
2023/12/05 01:06:32;;;;;;;16.35;6.35;;;;;;;;;;6394363;22;20451;-76
2023/12/05 01:08:57;;;;;;;15.25;6.43;;;;;;;;;;6424035;22;20032;-76
2023/12/05 01:11:22;;;;;;;18.48;7.18;;;;;;;;;;6423113;22;20491;-76
2023/12/05 01:13:48;;;;;;;22.55;7.65;;;;;;;;;;6423123;22;20420;-76
2023/12/05 01:16:14;;;;;;;14.60;6.43;;;;;;;;;;6395230;22;20014;-76
2023/12/05 01:18:40;;;;;;;18.65;7.90;;;;;;;;;;6394374;22;20092;-76
2023/12/05 01:21:05;;;;;;;20.58;7.35;;;;;;;;;;6394869;22;20626;-76
2023/12/05 01:23:30;;;;;;;16.67;6.65;;;;;;;;;;6394620;22;20018;-76
2023/12/05 01:25:56;;;;;;;20.00;7.80;;;;;;;;;;6423394;22;20014;-76
2023/12/05 01:28:21;;;;;;;21.05;7.85;;;;;;;;;;6422987;22;20026;-76
2023/12/05 01:30:46;;;;;;;22.42;7.85;;;;;;;;;;6394184;22;20782;-76
2023/12/05 01:33:12;;;;;;;28.48;7.72;;;;;;;;;;6423866;22;20016;-76
2023/12/05 01:35:37;;;;;;;18.50;6.93;;;;;;;;;;6423316;22;20041;-76
2023/12/05 01:38:03;;;;;;;17.30;6.75;;;;;;;;;;6423076;22;20489;-76
2023/12/05 01:40:28;;;;;;;19.40;6.75;;;;;;;;;;6395124;22;20001;-77
2023/12/05 01:42:54;;;;;;;19.63;7.07;;;;;;;;;;6423179;22;20033;-76
2023/12/05 01:45:19;;;;;;;19.85;7.22;;;;;;;;;;6424388;22;20076;-76
2023/12/05 01:47:45;;;;;;;17.08;6.95;;;;;;;;;;6395751;22;20455;-76
2023/12/05 01:50:17;;;;;;;19.02;7.07;;;;;;;;;;6428211;22;20013;-76
2023/12/05 01:52:51;;;;;;;20.83;7.65;;;;;;;;;;6439060;22;20014;-76
2023/12/05 01:55:17;;;;;;;18.40;6.70;;;;;;;;;;6414195;22;20006;-76
2023/12/05 01:57:43;;;;;;;15.45;6.70;;;;;;;;;;6397111;22;20024;-76
2023/12/05 02:00:10;;;;;;;16.17;6.68;;;;;;;;;;6423638;22;20005;-76
2023/12/05 02:02:35;;;;;;;20.52;7.20;;;;;;;;;;6423296;22;20010;-76
2023/12/05 02:05:04;;;;;;;14.88;6.00;;;;;;;;;;6422453;22;20032;-76
2023/12/05 02:07:30;;;;;;;20.48;7.03;;;;;;;;;;6422192;22;20013;-76
2023/12/05 02:09:56;;;;;;;19.55;6.93;;;;;;;;;;6394144;22;20017;-76
2023/12/05 02:12:21;;;;;;;17.00;5.90;;;;;;;;;;6395163;22;20061;-76
2023/12/05 02:14:47;;;;;;;20.80;6.93;;;;;;;;;;6422936;22;20041;-76
2023/12/05 02:17:24;;;;;;;19.00;6.13;;;;;;;;;;6422783;22;20690;-76
2023/12/05 02:20:01;;;;;;;17.70;6.30;;;;;;;;;;6393519;22;20009;-76
2023/12/05 02:23:16;;;;;;;16.42;5.63;;;;;;;;;;6422870;22;20364;-76
2023/12/05 02:25:54;;;;;;;14.48;5.82;;;;;;;;;;6261298;22;20094;-76
2023/12/05 02:28:20;;;;;;;15.73;5.80;;;;;;;;;;6235919;22;20062;-76
2023/12/05 02:30:45;;;;;;;18.00;6.15;;;;;;;;;;6333777;22;20036;-76
2023/12/05 02:33:10;;;;;;;18.73;6.10;;;;;;;;;;6422866;22;20837;-77
2023/12/05 02:35:37;;;;;;;13.35;5.38;;;;;;;;;;6422182;22;20020;-77
2023/12/05 02:38:11;;;;;;;13.85;5.50;;;;;;;;;;6394317;22;20014;-76
2023/12/05 02:40:44;;;;;;;12.88;5.40;;;;;;;;;;6422560;22;20100;-76
2023/12/05 02:43:12;;;;;;;12.90;4.93;;;;;;;;;;6393265;22;20088;-77
2023/12/05 02:45:39;;;;;;;13.40;5.38;;;;;;;;;;6394007;22;20116;-76
2023/12/05 02:48:07;;;;;;;15.77;5.20;;;;;;;;;;6393553;22;20484;-77
2023/12/05 02:50:33;;;;;;;7.40;3.60;;;;;;;;;;6422654;22;20009;-76
2023/12/05 02:52:58;;;;;;;9.27;3.83;;;;;;;;;;6422032;22;20016;-76
2023/12/05 02:55:23;;;;;;;9.15;3.67;;;;;;;;;;6394198;22;20046;-76
2023/12/05 02:57:49;;;;;;;8.32;3.67;;;;;;;;;;6421418;22;20356;-76
2023/12/05 03:00:14;;;;;;;8.40;3.72;;;;;;;;;;6394545;22;20001;-76
2023/12/05 03:02:40;;;;;;;8.88;4.20;;;;;;;;;;6422212;22;20133;-76
2023/12/05 03:05:06;;;;;;;9.30;3.72;;;;;;;;;;6393843;22;20123;-76
2023/12/05 03:07:31;;;;;;;8.88;3.85;;;;;;;;;;6394603;22;20002;-76
2023/12/05 03:09:56;;;;;;;9.02;3.83;;;;;;;;;;6396881;22;20001;-77
2023/12/05 03:12:22;;;;;;;9.32;3.88;;;;;;;;;;6406710;22;20004;-77
2023/12/05 03:14:47;;;;;;;8.68;3.78;;;;;;;;;;6408990;22;20017;-77
2023/12/05 03:17:13;;;;;;;11.95;4.20;;;;;;;;;;6393245;22;20464;-77
2023/12/05 03:19:38;;;;;;;7.70;4.07;;;;;;;;;;6421927;22;20082;-76
2023/12/05 03:22:03;;;;;;;12.30;4.53;;;;;;;;;;6393418;22;20046;-77
2023/12/05 03:24:29;;;;;;;10.90;4.07;;;;;;;;;;6421761;22;20008;-77
2023/12/05 03:26:55;;;;;;;10.15;4.07;;;;;;;;;;6422524;22;20435;-77
2023/12/05 03:29:20;;;;;;;10.70;4.40;;;;;;;;;;6389724;22;20009;-78
2023/12/05 03:31:45;;;;;;;12.93;4.20;;;;;;;;;;6420715;22;20475;-77
2023/12/05 03:34:11;;;;;;;11.15;4.20;;;;;;;;;;6420413;22;20012;-77
2023/12/05 03:36:36;;;;;;;11.10;4.30;;;;;;;;;;6393883;22;20031;-77
2023/12/05 03:39:02;;;;;;;12.52;4.15;;;;;;;;;;6422926;22;20403;-77
2023/12/05 03:41:27;;;;;;;11.32;4.03;;;;;;;;;;6392250;22;20033;-77
2023/12/05 03:43:52;;;;;;;11.90;4.13;;;;;;;;;;6422229;22;20536;-77
2023/12/05 03:46:18;;;;;;;9.95;4.00;;;;;;;;;;6393686;22;20009;-77
2023/12/05 03:48:43;;;;;;;10.98;3.70;;;;;;;;;;6393059;22;20018;-77
2023/12/05 03:51:08;;;;;;;6.20;3.58;;;;;;;;;;6421903;22;20068;-77
2023/12/05 03:53:34;;;;;;;9.95;3.70;;;;;;;;;;6421776;22;20020;-77
2023/12/05 03:55:59;;;;;;;13.45;3.85;;;;;;;;;;6393920;22;20016;-77
2023/12/05 03:58:25;;;;;;;12.68;4.10;;;;;;;;;;6420575;22;20009;-77
2023/12/05 04:00:50;;;;;;;9.77;4.13;;;;;;;;;;6393317;22;20077;-77
2023/12/05 04:03:16;;;;;;;10.63;4.53;;;;;;;;;;6422221;22;20001;-77
2023/12/05 04:05:41;;;;;;;12.32;4.25;;;;;;;;;;6393180;22;20020;-77
2023/12/05 04:08:07;;;;;;;9.80;4.13;;;;;;;;;;6393778;22;20406;-77
2023/12/05 04:10:32;;;;;;;13.25;4.80;;;;;;;;;;6393338;22;20042;-77
2023/12/05 04:12:58;;;;;;;12.73;4.63;;;;;;;;;;6421706;22;20112;-77
2023/12/05 04:15:23;;;;;;;15.85;4.78;;;;;;;;;;6393553;22;20104;-77
2023/12/05 04:17:48;;;;;;;14.15;4.88;;;;;;;;;;6422043;22;19997;-77
2023/12/05 04:20:14;;;;;;;16.08;5.13;;;;;;;;;;6422294;22;20014;-77
2023/12/05 04:22:39;;;;;;;13.13;4.90;;;;;;;;;;6421436;22;20025;-77
2023/12/05 04:25:05;;;;;;;14.55;5.43;;;;;;;;;;6422213;22;20009;-77
2023/12/05 04:27:31;;;;;;;17.67;5.70;;;;;;;;;;6394395;22;20005;-77
2023/12/05 04:29:56;;;;;;;14.75;5.47;;;;;;;;;;6397738;22;19997;-77
2023/12/05 04:32:22;;;;;;;19.13;5.78;;;;;;;;;;6436280;22;20088;-77
2023/12/05 04:34:47;;;;;;;20.98;5.30;;;;;;;;;;6445450;22;20023;-76
2023/12/05 04:37:12;;;;;;;16.95;5.63;;;;;;;;;;6404409;22;20025;-77
2023/12/05 04:39:38;;;;;;;15.93;5.13;;;;;;;;;;6397624;22;20037;-78
2023/12/05 04:42:04;;;;;;;17.55;4.95;;;;;;;;;;6396700;22;20045;-77
2023/12/05 04:44:30;;;;;;;19.52;6.32;;;;;;;;;;6424102;22;20752;-77
2023/12/05 04:46:57;;;;;;;19.00;5.70;;;;;;;;;;6424554;22;20088;-77
2023/12/05 04:49:22;;;;;;;15.55;5.20;;;;;;;;;;6423386;22;20460;-77
2023/12/05 04:51:48;;;;;;;20.38;6.45;;;;;;;;;;6424162;22;20070;-77
2023/12/05 04:54:13;;;;;;;20.55;6.30;;;;;;;;;;6424645;22;19993;-77
2023/12/05 04:56:38;;;;;;;20.77;6.93;;;;;;;;;;6423430;22;20409;-77
2023/12/05 04:59:04;;;;;;;22.52;6.18;;;;;;;;;;6424036;22;20062;-77
2023/12/05 05:01:29;;;;;;;19.70;6.88;;;;;;;;;;6394817;22;20036;-77
2023/12/05 05:03:54;;;;;;;22.25;7.03;;;;;;;;;;6423332;22;20013;-77
2023/12/05 05:06:21;;;;;;;20.52;7.32;;;;;;;;;;6395471;22;20088;-76
2023/12/05 05:08:46;;;;;;;21.75;6.85;;;;;;;;;;6423476;22;20096;-76
2023/12/05 05:11:12;;;;;;;22.08;7.45;;;;;;;;;;6395087;22;20044;-76
2023/12/05 05:13:37;;;;;;;17.55;7.18;;;;;;;;;;6395054;22;20021;-76
2023/12/05 05:16:03;;;;;;;19.60;6.15;;;;;;;;;;6394016;22;20001;-77
2023/12/05 05:18:28;;;;;;;18.63;7.40;;;;;;;;;;6394765;22;20010;-77
2023/12/05 05:20:54;;;;;;;19.70;7.78;;;;;;;;;;6424445;22;20328;-77
2023/12/05 05:23:19;;;;;;;19.90;6.75;;;;;;;;;;6422893;22;20049;-76
2023/12/05 05:25:45;;;;;;;20.20;7.65;;;;;;;;;;6423018;22;20400;-76
2023/12/05 05:28:10;;;;;;;29.45;10.10;;;;;;;;;;6423150;22;20014;-76
2023/12/05 05:30:36;;;;;;;35.70;11.00;;;;;;;;;;6394819;22;20016;-76
2023/12/05 05:33:01;;;;;;;33.78;10.98;;;;;;;;;;6394837;22;20317;-76
2023/12/05 05:35:27;;;;;;;30.08;9.35;;;;;;;;;;6423150;22;20033;-76
2023/12/05 05:37:52;;;;;;;29.88;8.63;;;;;;;;;;6423567;22;20065;-77
2023/12/05 05:40:18;;;;;;;31.92;10.68;;;;;;;;;;6393872;22;20013;-76
2023/12/05 05:42:43;;;;;;;36.90;11.10;;;;;;;;;;6423548;22;20009;-77
2023/12/05 05:45:09;;;;;;;37.95;10.70;;;;;;;;;;6424915;22;19997;-76
2023/12/05 05:47:35;;;;;;;49.78;12.85;;;;;;;;;;6422217;22;20021;-77
2023/12/05 05:50:00;;;;;;;36.08;10.82;;;;;;;;;;6397246;22;20009;-77
2023/12/05 05:52:26;;;;;;;40.10;11.35;;;;;;;;;;6434383;22;20538;-76
2023/12/05 05:54:51;;;;;;;32.05;10.55;;;;;;;;;;6438160;22;20005;-76
2023/12/05 05:57:16;;;;;;;34.28;10.07;;;;;;;;;;6396991;22;20002;-76
2023/12/05 05:59:43;;;;;;;31.25;10.13;;;;;;;;;;6394696;22;20021;-77
2023/12/05 06:02:08;;;;;;;33.03;11.35;;;;;;;;;;6422048;22;20089;-77
2023/12/05 06:04:39;;;;;;;36.25;10.20;;;;;;;;;;6393378;22;20055;-76
2023/12/05 06:07:05;;;;;;;31.27;9.27;;;;;;;;;;6395063;22;20062;-76
2023/12/05 06:09:30;;;;;;;33.13;10.93;;;;;;;;;;6394066;22;20001;-77
2023/12/05 06:11:55;;;;;;;31.45;10.60;;;;;;;;;;6423740;22;20020;-77
2023/12/05 06:14:21;;;;;;;30.08;10.55;;;;;;;;;;6421882;22;20036;-77
2023/12/05 06:16:46;;;;;;;25.33;8.20;;;;;;;;;;6423181;22;20015;-77
2023/12/05 06:19:11;;;;;;;24.42;8.73;;;;;;;;;;6422640;22;20011;-77
2023/12/05 06:21:37;;;;;;;25.60;8.50;;;;;;;;;;6394673;22;19998;-77
2023/12/05 06:24:02;;;;;;;33.05;9.80;;;;;;;;;;6395048;22;20040;-77
2023/12/05 06:26:28;;;;;;;26.23;8.80;;;;;;;;;;6422416;22;20026;-77
2023/12/05 06:28:53;;;;;;;22.95;7.68;;;;;;;;;;6393353;22;20013;-77
2023/12/05 06:31:18;;;;;;;21.80;7.57;;;;;;;;;;6423324;22;20001;-77
2023/12/05 06:33:44;;;;;;;24.38;7.78;;;;;;;;;;6422934;22;20063;-77
2023/12/05 06:36:11;;;;;;;19.17;7.18;;;;;;;;;;6394839;22;20001;-77
2023/12/05 06:38:37;;;;;;;20.40;7.20;;;;;;;;;;6422733;22;20014;-77
2023/12/05 06:41:03;;;;;;;20.27;7.45;;;;;;;;;;6394536;22;20010;-77
2023/12/05 06:43:28;;;;;;;15.20;6.57;;;;;;;;;;6393687;22;20017;-77
2023/12/05 06:45:53;;;;;;;19.85;7.95;;;;;;;;;;6422504;22;20006;-77
2023/12/05 06:48:19;;;;;;;25.38;8.93;;;;;;;;;;6423445;22;20072;-77
2023/12/05 06:50:46;;;;;;;29.40;9.32;;;;;;;;;;6393917;22;20042;-78
2023/12/05 06:53:12;;;;;;;23.55;8.60;;;;;;;;;;6422212;22;20075;-77
2023/12/05 06:55:38;;;;;;;28.42;8.88;;;;;;;;;;6421679;22;20399;-77
2023/12/05 06:58:03;;;;;;;32.97;10.00;;;;;;;;;;6393478;22;20010;-77
2023/12/05 07:00:29;;;;;;;27.80;9.60;;;;;;;;;;6394051;22;19997;-78
2023/12/05 07:02:54;;;;;;;12.85;5.50;;;;;;;;;;6392789;22;20005;-77
2023/12/05 07:05:20;;;;;;;25.75;9.82;;;;;;;;;;6393382;22;20851;-77
2023/12/05 07:07:45;;;;;;;21.20;6.68;;;;;;;;;;6394586;22;20010;-78
2023/12/05 07:10:11;;;;;;;25.85;8.40;;;;;;;;;;6396441;22;20005;-77
2023/12/05 07:12:36;;;;;;;11.60;4.95;;;;;;;;;;6435153;22;19997;-77
2023/12/05 07:15:02;;;;;;;21.55;7.18;;;;;;;;;;6416116;22;20036;-78
2023/12/05 07:17:28;;;;;;;25.55;7.75;;;;;;;;;;6430120;22;20017;-78
2023/12/05 07:19:53;;;;;;;18.65;6.13;;;;;;;;;;6395518;22;20033;-77
2023/12/05 07:22:18;;;;;;;16.85;6.93;;;;;;;;;;6393674;22;20064;-77
2023/12/05 07:24:44;;;;;;;13.23;5.63;;;;;;;;;;6422407;22;20080;-78
2023/12/05 07:27:09;;;;;;;17.00;5.20;;;;;;;;;;6422055;22;20025;-78
2023/12/05 07:29:34;;;;;;;14.07;5.38;;;;;;;;;;6393534;22;20477;-77
2023/12/05 07:32:00;;;;;;;23.17;7.65;;;;;;;;;;6393023;22;20011;-78
2023/12/05 07:34:25;;;;;;;27.48;8.45;;;;;;;;;;6393637;22;20444;-78
2023/12/05 07:36:51;;;;;;;14.32;5.35;;;;;;;;;;6392417;22;20004;-77
2023/12/05 07:39:16;;;;;;;28.00;9.05;;;;;;;;;;6393319;22;20126;-75
2023/12/05 07:41:41;;;;;;;20.23;8.57;;;;;;;;;;6421133;22;20539;-77
2023/12/05 07:44:07;;;;;;;23.08;9.20;;;;;;;;;;6393018;22;20038;-77
2023/12/05 07:46:33;;;;;;;25.95;8.00;;;;;;;;;;6391398;22;20009;-77
2023/12/05 07:48:58;;;;;;;34.28;9.40;;;;;;;;;;6422380;22;20036;-77
2023/12/05 07:51:24;;;;;;;18.73;6.28;;;;;;;;;;6421555;22;20355;-77
2023/12/05 07:53:53;;;;;;;29.15;7.97;;;;;;;;;;6393508;22;19997;-77
2023/12/05 07:56:19;;;;;;;22.83;8.05;;;;;;;;;;6390773;22;20515;-77
2023/12/05 07:58:45;;;;;;;26.17;7.70;;;;;;;;;;6392542;22;20746;-77
2023/12/05 08:01:11;;;;;;;19.35;6.63;;;;;;;;;;6391977;22;20025;-78
2023/12/05 08:03:36;;;;;;;18.20;6.45;;;;;;;;;;6392119;22;20100;-77
2023/12/05 08:06:02;;;;;;;16.85;5.65;;;;;;;;;;6392213;22;20032;-77
2023/12/05 08:08:30;;;;;;;19.50;6.32;;;;;;;;;;6420794;22;20046;-78
2023/12/05 08:10:59;;;;;;;23.08;8.02;;;;;;;;;;6393066;22;20010;-78
2023/12/05 08:13:25;;;;;;;25.05;8.13;;;;;;;;;;6420623;22;20084;-78
2023/12/05 08:15:51;;;;;;;38.78;11.10;;;;;;;;;;6420135;22;20582;-78
2023/12/05 08:18:16;;;;;;;33.33;9.88;;;;;;;;;;6392672;22;20002;-78
2023/12/05 08:20:41;;;;;;;26.65;9.60;;;;;;;;;;6414246;22;20009;-77
2023/12/05 08:23:07;;;;;;;33.15;11.18;;;;;;;;;;6420421;22;20013;-78
2023/12/05 08:25:32;;;;;;;21.38;8.05;;;;;;;;;;6419617;22;20021;-78
2023/12/05 08:27:58;;;;;;;23.45;8.73;;;;;;;;;;6393334;22;20080;-78
2023/12/05 08:30:23;;;;;;;21.17;8.32;;;;;;;;;;6394500;22;19994;-78
2023/12/05 08:32:48;;;;;;;25.65;10.00;;;;;;;;;;6434080;22;20004;-79
2023/12/05 08:35:14;;;;;;;15.02;6.10;;;;;;;;;;6406179;22;20029;-78
2023/12/05 08:37:40;;;;;;;14.07;6.63;;;;;;;;;;6418556;22;20037;-78
2023/12/05 08:40:06;;;;;;;17.33;6.30;;;;;;;;;;6418560;22;20006;-78
2023/12/05 08:42:31;;;;;;;28.42;8.73;;;;;;;;;;6419116;22;20009;-78
2023/12/05 08:44:56;;;;;;;25.58;8.57;;;;;;;;;;6412284;22;19994;-78
2023/12/05 08:47:22;;;;;;;25.52;8.80;;;;;;;;;;6392069;22;20042;-78
2023/12/05 08:49:47;;;;;;;20.65;8.95;;;;;;;;;;6421205;22;20019;-77
2023/12/05 08:52:13;;;;;;;15.32;6.65;;;;;;;;;;6419265;22;20585;-77
2023/12/05 08:54:38;;;;;;;25.45;8.95;;;;;;;;;;6419514;22;20025;-77
2023/12/05 08:57:04;;;;;;;21.40;9.23;;;;;;;;;;6419596;22;20010;-77
2023/12/05 08:59:29;;;;;;;28.65;9.65;;;;;;;;;;6418580;22;20086;-77
2023/12/05 09:01:54;;;;;;;30.92;9.85;;;;;;;;;;6391079;22;20363;-78
2023/12/05 09:04:20;;;;;;;35.30;11.10;;;;;;;;;;6421002;22;20017;-77
2023/12/05 09:06:45;;;;;;;15.10;7.00;;;;;;;;;;6392718;22;20013;-78
2023/12/05 09:09:10;;;;;;;21.42;8.07;;;;;;;;;;6421894;22;20004;-78
2023/12/05 09:11:37;;;;;;;20.20;7.68;;;;;;;;;;6392960;22;20570;-78
2023/12/05 09:14:04;;;;;;;26.20;9.55;;;;;;;;;;6421442;22;20009;-78
2023/12/05 09:16:29;;;;;;;22.75;7.57;;;;;;;;;;6393807;22;20005;-77
2023/12/05 09:18:54;;;;;;;20.98;5.95;;;;;;;;;;6420556;22;20013;-78
2023/12/05 09:21:20;;;;;;;28.15;8.20;;;;;;;;;;6421599;22;19997;-77
2023/12/05 09:23:45;;;;;;;16.98;6.93;;;;;;;;;;6393956;22;20826;-77
2023/12/05 09:26:13;;;;;;;19.58;6.53;;;;;;;;;;6421476;22;20469;-77
2023/12/05 09:28:39;;;;;;;17.30;6.07;;;;;;;;;;6420881;22;20389;-77
2023/12/05 09:31:04;;;;;;;10.90;4.97;;;;;;;;;;6419432;22;20010;-77
2023/12/05 09:33:29;;;;;;;13.75;5.30;;;;;;;;;;6394279;22;20100;-78
2023/12/05 09:35:55;;;;;;;14.98;5.50;;;;;;;;;;6422951;22;19997;-77
2023/12/05 09:38:20;;;;;;;13.02;5.82;;;;;;;;;;6423376;22;20009;-77
2023/12/05 09:40:47;;;;;;;14.20;5.80;;;;;;;;;;6395195;22;20012;-77
2023/12/05 09:43:14;;;;;;;17.20;7.20;;;;;;;;;;6392435;22;20307;-77
2023/12/05 09:45:43;;;;;;;10.93;4.95;;;;;;;;;;6423513;22;20448;-78
2023/12/05 09:48:11;;;;;;;29.63;9.15;;;;;;;;;;6396168;22;20353;-78
2023/12/05 09:50:37;;;;;;;11.57;4.80;;;;;;;;;;6427760;22;20042;-77
2023/12/05 09:53:05;;;;;;;12.32;5.45;;;;;;;;;;6438939;22;20029;-77
2023/12/05 09:55:30;;;;;;;14.45;5.13;;;;;;;;;;6415072;22;20080;-77
2023/12/05 09:57:57;;;;;;;9.80;4.10;;;;;;;;;;6428007;22;20040;-77
2023/12/05 10:00:24;;;;;;;17.02;5.28;;;;;;;;;;6425324;22;20057;-77
2023/12/05 10:02:51;;;;;;;11.32;5.57;;;;;;;;;;6395201;22;20085;-77
2023/12/05 10:05:19;;;;;;;12.80;4.70;;;;;;;;;;6394140;22;20096;-77
2023/12/05 10:07:46;;;;;;;13.10;5.47;;;;;;;;;;6423436;22;20464;-77
2023/12/05 10:10:13;;;;;;;28.75;7.95;;;;;;;;;;6395069;22;20029;-77
2023/12/05 10:12:40;;;;;;;10.18;5.47;;;;;;;;;;6423210;22;19993;-77
2023/12/05 10:15:06;;;;;;;13.48;5.30;;;;;;;;;;6423671;22;20012;-77
2023/12/05 10:17:33;;;;;;;11.55;5.32;;;;;;;;;;6394704;22;20020;-77
2023/12/05 10:19:59;;;;;;;27.92;7.40;;;;;;;;;;6394364;22;20094;-78
2023/12/05 10:22:30;;;;;;;9.15;4.75;;;;;;;;;;6394244;22;20013;-77
2023/12/05 10:24:56;;;;;;;17.33;6.22;;;;;;;;;;6394163;22;20005;-77
2023/12/05 10:27:21;;;;;;;13.65;5.93;;;;;;;;;;6414708;22;20778;-77
2023/12/05 10:29:47;;;;;;;19.60;8.20;;;;;;;;;;6419455;22;20054;-78
2023/12/05 10:32:13;;;;;;;22.08;8.02;;;;;;;;;;6418675;22;20330;-78
2023/12/05 10:34:50;;;;;;;24.42;7.55;;;;;;;;;;6421174;22;20534;-77
2023/12/05 10:37:22;;;;;;;9.50;3.97;;;;;;;;;;6421115;22;20012;-78
2023/12/05 10:39:49;;;;;;;47.03;13.15;;;;;;;;;;6420839;22;20029;-78
2023/12/05 10:42:14;;;;;;;24.75;9.82;;;;;;;;;;6420235;22;20015;-77
2023/12/05 10:44:40;;;;;;;13.40;5.53;;;;;;;;;;6389730;22;20855;-77
2023/12/05 10:47:06;;;;;;;21.77;8.20;;;;;;;;;;6420777;22;20013;-77
2023/12/05 10:49:34;;;;;;;20.02;7.25;;;;;;;;;;6421785;22;20013;-78
2023/12/05 10:52:03;;;;;;;32.33;10.50;;;;;;;;;;6393987;22;20016;-77
2023/12/05 10:54:28;;;;;;;43.72;11.88;;;;;;;;;;6394075;22;20084;-77
2023/12/05 10:56:58;;;;;;;39.70;10.43;;;;;;;;;;6392377;22;20089;-77
2023/12/05 10:59:28;;;;;;;17.67;7.93;;;;;;;;;;6391953;22;20009;-77
2023/12/05 11:01:57;;;;;;;36.53;9.93;;;;;;;;;;6391943;22;20476;-77
2023/12/05 11:04:26;;;;;;;22.10;7.10;;;;;;;;;;6421083;22;20021;-77
2023/12/05 11:06:54;;;;;;;39.40;9.20;;;;;;;;;;6416285;22;20714;-78
2023/12/05 11:09:22;;;;;;;22.55;7.13;;;;;;;;;;6394336;22;20028;-79
2023/12/05 11:11:51;;;;;;;20.05;6.93;;;;;;;;;;6401228;22;20024;-78
2023/12/05 11:14:18;;;;;;;37.13;9.57;;;;;;;;;;6434913;22;20069;-78
2023/12/05 11:16:52;;;;;;;40.47;9.23;;;;;;;;;;6397478;22;20009;-77
2023/12/05 11:19:37;;;;;;;35.35;9.70;;;;;;;;;;6418741;22;20601;-78
2023/12/05 11:22:20;;;;;;;25.70;8.82;;;;;;;;;;6390291;22;20041;-77
2023/12/05 11:24:59;;;;;;;37.42;10.30;;;;;;;;;;6419753;22;20402;-75
2023/12/05 11:27:40;;;;;;;39.35;9.52;;;;;;;;;;6390653;22;20001;-77
2023/12/05 11:30:42;;;;;;;26.73;8.13;;;;;;;;;;6394312;22;20004;-77
2023/12/05 11:33:39;;;;;;;35.90;9.68;;;;;;;;;;6309596;22;20046;-77
2023/12/05 11:36:44;;;;;;;35.30;9.88;;;;;;;;;;6419923;22;20483;-77
2023/12/05 11:39:11;;;;;;;43.58;10.90;;;;;;;;;;6258045;22;20445;-77
2023/12/05 11:41:37;;;;;;;40.85;10.07;;;;;;;;;;6258132;22;20035;-77
2023/12/05 11:44:11;;;;;;;24.38;7.53;;;;;;;;;;6334616;22;20043;-77
2023/12/05 11:46:36;;;;;;;23.08;8.68;;;;;;;;;;6389935;22;20017;-77
2023/12/05 11:49:03;;;;;;;26.88;9.48;;;;;;;;;;6420130;22;20016;-77
2023/12/05 11:51:31;;;;;;;19.23;7.80;;;;;;;;;;6389927;22;19997;-77
2023/12/05 11:54:00;;;;;;;19.45;6.97;;;;;;;;;;6392398;22;20020;-77
2023/12/05 11:56:28;;;;;;;34.05;9.15;;;;;;;;;;6418743;22;20670;-77
2023/12/05 11:59:16;;;;;;;22.90;6.03;;;;;;;;;;6419730;22;20048;-77
2023/12/05 12:01:42;;;;;;;65.45;12.93;;;;;;;;;;6420269;22;20005;-77
2023/12/05 12:04:21;;;;;;;51.30;11.55;;;;;;;;;;6389782;22;20467;-77
2023/12/05 12:06:48;;;;;;;42.42;10.52;;;;;;;;;;6392121;22;20017;-76
2023/12/05 12:09:13;;;;;;;25.70;8.52;;;;;;;;;;6391037;22;20100;-77
2023/12/05 12:11:39;;;;;;;35.40;10.52;;;;;;;;;;6391491;22;20084;-76
2023/12/05 12:14:13;;;;;;;27.30;9.38;;;;;;;;;;6391035;22;20356;-76
2023/12/05 12:16:39;;;;;;;23.23;8.25;;;;;;;;;;6391490;22;20013;-76
2023/12/05 12:19:08;;;;;;;12.68;6.07;;;;;;;;;;6418768;22;20006;-76
2023/12/05 12:21:34;;;;;;;24.95;7.68;;;;;;;;;;6391278;22;20359;-76
2023/12/05 12:24:00;;;;;;;26.20;9.07;;;;;;;;;;6391579;22;20112;-76
2023/12/05 12:26:25;;;;;;;26.02;9.38;;;;;;;;;;6421135;22;20063;-76
2023/12/05 12:28:51;;;;;;;40.50;10.38;;;;;;;;;;6393365;22;20013;-76
2023/12/05 12:31:26;;;;;;;31.20;8.57;;;;;;;;;;6397316;22;20012;-76
2023/12/05 12:33:53;;;;;;;42.75;11.93;;;;;;;;;;6409384;22;20002;-76
2023/12/05 12:36:18;;;;;;;27.10;8.43;;;;;;;;;;6434964;22;20006;-76
2023/12/05 12:38:45;;;;;;;29.85;9.25;;;;;;;;;;6398920;22;20009;-76
2023/12/05 12:41:10;;;;;;;19.42;7.35;;;;;;;;;;6394353;22;20112;-77
2023/12/05 12:43:36;;;;;;;38.83;9.68;;;;;;;;;;6391510;22;20017;-77
2023/12/05 12:46:01;;;;;;;19.77;6.97;;;;;;;;;;6391795;22;20080;-77
2023/12/05 12:48:27;;;;;;;23.45;7.10;;;;;;;;;;6419146;22;20621;-77
2023/12/05 12:50:54;;;;;;;32.75;9.20;;;;;;;;;;6392407;22;20073;-77
2023/12/05 12:53:20;;;;;;;24.13;7.57;;;;;;;;;;6393327;22;20009;-77
2023/12/05 12:55:45;;;;;;;12.38;5.85;;;;;;;;;;6394919;22;20009;-77
2023/12/05 12:58:11;;;;;;;8.95;4.30;;;;;;;;;;6394150;22;20032;-77
2023/12/05 13:00:37;;;;;;;24.90;8.27;;;;;;;;;;6393721;22;19997;-77
2023/12/05 13:03:05;;;;;;;22.88;8.02;;;;;;;;;;6421147;22;20455;-76
2023/12/05 13:05:36;;;;;;;22.65;8.00;;;;;;;;;;6392050;22;20426;-77
2023/12/05 13:08:04;;;;;;;19.13;7.13;;;;;;;;;;6393574;22;20013;-76
2023/12/05 13:10:30;;;;;;;23.73;7.35;;;;;;;;;;6392869;22;20029;-76
2023/12/05 13:12:59;;;;;;;17.55;7.20;;;;;;;;;;6420532;22;20009;-76
2023/12/05 13:15:27;;;;;;;19.77;7.07;;;;;;;;;;6420603;22;20004;-77
2023/12/05 13:18:00;;;;;;;40.38;9.70;;;;;;;;;;6420679;22;20008;-77
2023/12/05 13:20:27;;;;;;;20.25;7.85;;;;;;;;;;6376781;22;20006;-76
2023/12/05 13:22:53;;;;;;;22.50;7.15;;;;;;;;;;6392087;22;20487;-76
2023/12/05 13:25:19;;;;;;;22.83;7.82;;;;;;;;;;6421102;22;20040;-77
2023/12/05 13:27:44;;;;;;;21.92;7.13;;;;;;;;;;6394332;22;20055;-77
2023/12/05 13:30:14;;;;;;;16.77;6.65;;;;;;;;;;6394766;22;20005;-77
2023/12/05 13:32:39;;;;;;;16.23;6.55;;;;;;;;;;6422229;22;20610;-76
2023/12/05 13:35:05;;;;;;;22.20;7.13;;;;;;;;;;6422775;22;20009;-77
2023/12/05 13:37:30;;;;;;;19.85;6.13;;;;;;;;;;6422033;22;20345;-77
2023/12/05 13:39:56;;;;;;;18.98;6.50;;;;;;;;;;6392645;22;20013;-77
2023/12/05 13:42:21;;;;;;;24.70;7.85;;;;;;;;;;6421833;22;20021;-77
2023/12/05 13:44:46;;;;;;;19.30;5.85;;;;;;;;;;6422006;22;20020;-77
2023/12/05 13:47:12;;;;;;;12.00;6.47;;;;;;;;;;6421717;22;20009;-77
2023/12/05 13:49:37;;;;;;;17.83;6.97;;;;;;;;;;6394740;22;20031;-75
2023/12/05 13:52:03;;;;;;;22.27;7.80;;;;;;;;;;6403690;22;20013;-77
2023/12/05 13:54:29;;;;;;;13.50;6.13;;;;;;;;;;6409910;22;20024;-77
2023/12/05 13:56:55;;;;;;;23.42;7.20;;;;;;;;;;6437337;22;20001;-77
2023/12/05 13:59:20;;;;;;;23.45;8.45;;;;;;;;;;6395145;22;20028;-76
2023/12/05 14:01:47;;;;;;;13.38;4.88;;;;;;;;;;6422792;22;20005;-77
2023/12/05 14:04:12;;;;;;;13.07;5.28;;;;;;;;;;6393810;22;20113;-77
2023/12/05 14:06:38;;;;;;;16.42;6.18;;;;;;;;;;6422993;22;20013;-76
2023/12/05 14:09:05;;;;;;;23.63;7.25;;;;;;;;;;6395502;22;20422;-77
2023/12/05 14:11:30;;;;;;;26.85;7.95;;;;;;;;;;6394045;22;20017;-78
2023/12/05 14:13:56;;;;;;;20.80;6.18;;;;;;;;;;6421395;22;20074;-76
2023/12/05 14:16:21;;;;;;;12.23;6.22;;;;;;;;;;6394393;22;20054;-76
2023/12/05 14:18:46;;;;;;;23.40;7.90;;;;;;;;;;6394544;22;20016;-76
2023/12/05 14:21:12;;;;;;;32.55;8.45;;;;;;;;;;6423384;22;19997;-77
2023/12/05 14:23:37;;;;;;;14.13;6.05;;;;;;;;;;6394264;22;20009;-77
2023/12/05 14:26:04;;;;;;;21.08;8.00;;;;;;;;;;6393933;22;20037;-77